• Join FlightAware (Why Join?)
  • Login
  • US Flag 
02:44PM EDT


 

Airport Tracker/Info


-or-


 

Live Flight TrackerFlight Track Log ✈ FLG3493 ✈ 14-Dec-2012 ✈ KMSN - KMSP

Flight Track Log - Related Links

Times and Time Zones

All times are in EST time to prevent confusion due to time zone crossing. See the FLG3493 flight status page for this flight to view local times or setup timezone preferences in your user account.

Time Position Orientation Groundspeed Altitude Reporting Facility
EST Latitude Longitude Course Direction KTS MPH feet Rate Location/Type
04:30PM 43.0928 -89.3539 229° Southwest 161 185 2,700  Level Minneapolis Center
04:31PM 43.0619 -89.4031 229° Southwest 190 219 5,100 2,100 Climbing Minneapolis Center
04:32PM 43.0953 -89.4914 297° West 246 283 7,100 2,580 Climbing Minneapolis Center
04:33PM 43.1289 -89.5894 295° West 275 316 10,500 2,520 Climbing Minneapolis Center
04:34PM 43.1603 -89.6950 292° West 289 333 12,400 2,280 Climbing Minneapolis Center
04:35PM 43.2011 -89.8289 293° West 310 357 15,300 2,520 Climbing Minneapolis Center
04:36PM 43.2378 -89.9483 293° West 329 379 17,700 2,160 Climbing Minneapolis Center
04:37PM 43.2742 -90.0686 293° West 338 389 19,800 1,080 Climbing Minneapolis Center
04:38PM 43.3081 -90.1964 290° West 349 402 20,000 60 Climbing Minneapolis Center
04:39PM 43.3358 -90.3350 285° West 371 427 20,000  Level Minneapolis Center
04:40PM 43.3694 -90.4958 286° West 375 432 20,000  Level Minneapolis Center
04:41PM 43.3978 -90.6331 286° West 374 430 20,000  Level Minneapolis Center
04:43PM 43.4261 -90.7711 286° West 374 430 20,000  Level Minneapolis Center
04:44PM 43.4531 -90.9086 285° West 374 430 20,000  Level Minneapolis Center
04:45PM 43.4814 -91.0464 286° West 373 429 20,000  Level Minneapolis Center
04:46PM 43.5147 -91.2069 286° West 374 430 20,000  Level Minneapolis Center
04:47PM 43.5400 -91.3406 285° West 371 427 20,000  Level Minneapolis Center
04:48PM 43.5678 -91.4764 286° West 370 426 20,000  Level Minneapolis Center
04:49PM 43.5944 -91.6153 285° West 373 429 20,000  Level Minneapolis Center
04:50PM 43.6211 -91.7533 285° West 374 430 20,000  Level Minneapolis Center
04:51PM 43.6508 -91.9103 285° West 363 418 20,000  Level Minneapolis Center
04:52PM 43.6717 -92.0217 285° West 327 376 20,000  Level Minneapolis Center
04:53PM 43.6931 -92.1306 285° West 309 356 20,000  Level Minneapolis Center
04:54PM 43.7158 -92.2408 286° West 304 350 20,000  Level Minneapolis Center
04:55PM 43.7358 -92.3511 284° West 300 345 20,000  Level Minneapolis Center
04:56PM 43.7567 -92.4608 285° West 298 343 20,000 -300 Level Minneapolis Center
04:57PM 43.7822 -92.5944 285° West 299 344 19,400 -1,380 Descending Minneapolis Center
04:58PM 43.8097 -92.7025 289° West 299 344 17,200 -1,680 Descending Minneapolis Center
04:59PM 43.8414 -92.8089 292° West 300 345 16,000 -600 Descending Minneapolis Center
05:00PM 43.8703 -92.9125 291° West 297 342 16,000  Level Minneapolis Center
05:01PM 43.8992 -93.0153 291° West 293 337 16,000 -120 Level Minneapolis Center
05:01PM 43.9125 -93.0564 294° West 282 325 15,900 -180 Descending FAA TRACON SMA TRACON (SMA)
05:02PM 43.9233 -93.0981 290° West 288 331 15,900  Level FAA TRACON SMA TRACON (SMA)
05:02PM 43.9322 -93.1322 290° West 294 338 15,900 -600 Level FAA TRACON SMA TRACON (SMA)
05:02PM 43.9408 -93.1658 290° West 296 341 15,500 -1,980 Descending FAA TRACON SMA TRACON (SMA)
05:03PM 43.9536 -93.2047 295° West 296 341 14,600 -1,980 Descending FAA TRACON SMA TRACON (SMA)
05:03PM 43.9722 -93.2292 317° Northwest 298 343 14,200 -1,380 Descending FAA TRACON SMA TRACON (SMA)
05:03PM 43.9975 -93.2386 345° North 303 349 13,700 -1,440 Descending FAA TRACON SMA TRACON (SMA)
05:04PM 44.0244 -93.2383 360° North 314 361 13,300 -1,560 Descending FAA TRACON SMA TRACON (SMA)
05:04PM 44.0583 -93.2361 North 318 366 12,700 -1,680 Descending FAA TRACON SMA TRACON (SMA)
05:04PM 44.0858 -93.2325 North 320 368 12,200 -1,500 Descending FAA TRACON SMA TRACON (SMA)
05:05PM 44.1131 -93.2292 North 319 367 11,700 -1,680 Descending FAA TRACON SMA TRACON (SMA)
05:05PM 44.1467 -93.2261 North 317 365 11,100 -1,500 Descending FAA TRACON SMA TRACON (SMA)
05:05PM 44.1736 -93.2244 North 314 361 10,700 -1,380 Descending FAA TRACON SMA TRACON (SMA)
05:06PM 44.1997 -93.2233 North 310 357 10,200 -1,200 Descending FAA TRACON SMA TRACON (SMA)
05:06PM 44.2322 -93.2194 North 305 351 9,900 -480 Descending FAA TRACON SMA TRACON (SMA)
05:06PM 44.2586 -93.2158 North 304 350 9,900  Level FAA TRACON SMA TRACON (SMA)
05:07PM 44.2914 -93.2128 North 307 353 9,900  Level FAA TRACON SMA TRACON (SMA)
05:07PM 44.3447 -93.2086 North 311 358 9,900  Level FAA TRACON SMA TRACON (SMA)
05:08PM 44.3775 -93.2053 North 308 354 9,900  Level FAA TRACON SMA TRACON (SMA)
05:08PM 44.4028 -93.2036 North 299 344 9,900  Level FAA TRACON SMA TRACON (SMA)
05:08PM 44.4272 -93.1997 North 289 333 9,900  Level FAA TRACON SMA TRACON (SMA)
05:09PM 44.4569 -93.1981 North 279 321 9,900  Level FAA TRACON SMA TRACON (SMA)
05:09PM 44.4806 -93.1964 North 277 319 9,900  Level FAA TRACON SMA TRACON (SMA)
05:09PM 44.5044 -93.1933 North 278 320 9,900  Level FAA TRACON SMA TRACON (SMA)
05:10PM 44.5336 -93.1908 North 276 318 9,900  Level FAA TRACON SMA TRACON (SMA)
05:10PM 44.5556 -93.1881 North 262 302 9,900  Level FAA TRACON SMA TRACON (SMA)
05:10PM 44.5767 -93.1867 North 249 287 9,900  Level FAA TRACON SMA TRACON (SMA)
05:11PM 44.5969 -93.1844 North 240 276 9,900  Level FAA TRACON SMA TRACON (SMA)
05:11PM 44.6225 -93.1839 North 238 274 9,900  Level FAA TRACON SMA TRACON (SMA)
05:11PM 44.6411 -93.1942 339° North 237 273 9,900  Level FAA TRACON SMA TRACON (SMA)
05:12PM 44.6594 -93.2072 333° Northwest 237 273 9,900 -180 Level FAA TRACON SMA TRACON (SMA)
05:12PM 44.6822 -93.2219 335° Northwest 235 270 9,800 -1,080 Descending FAA TRACON SMA TRACON (SMA)
05:12PM 44.7006 -93.2344 334° Northwest 235 270 9,200 -1,620 Descending FAA TRACON SMA TRACON (SMA)
05:13PM 44.7189 -93.2472 334° Northwest 239 275 8,700 -1,680 Descending FAA TRACON SMA TRACON (SMA)
05:13PM 44.7419 -93.2639 333° Northwest 242 278 8,100 -1,200 Descending FAA TRACON SMA TRACON (SMA)
05:13PM 44.7600 -93.2775 332° Northwest 240 276 7,900 -300 Descending FAA TRACON SMA TRACON (SMA)
05:14PM 44.7781 -93.2906 333° Northwest 239 275 7,900  Level FAA TRACON SMA TRACON (SMA)
05:14PM 44.8008 -93.3078 332° Northwest 240 276 7,900  Level FAA TRACON SMA TRACON (SMA)
05:15PM 44.8378 -93.3358 332° Northwest 244 281 7,900  Level FAA TRACON SMA TRACON (SMA)
05:15PM 44.8611 -93.3525 333° Northwest 246 283 7,900  Level FAA TRACON SMA TRACON (SMA)
05:15PM 44.8767 -93.3708 320° Northwest 246 283 7,900  Level FAA TRACON SMA TRACON (SMA)
05:16PM 44.8819 -93.3958 287° West 230 265 7,900  Level FAA TRACON SMA TRACON (SMA)
05:16PM 44.8844 -93.4219 278° West 218 251 7,900  Level FAA TRACON SMA TRACON (SMA)
05:16PM 44.8872 -93.4544 277° West 217 250 7,900  Level FAA TRACON SMA TRACON (SMA)
05:17PM 44.8903 -93.4811 279° West 219 252 7,900  Level FAA TRACON SMA TRACON (SMA)
05:17PM 44.8928 -93.5069 278° West 219 252 7,900  Level FAA TRACON SMA TRACON (SMA)
05:17PM 44.8956 -93.5392 277° West 216 249 7,900  Level FAA TRACON SMA TRACON (SMA)
05:18PM 44.8981 -93.5653 278° West 217 250 7,900  Level FAA TRACON SMA TRACON (SMA)
05:18PM 44.9003 -93.5911 277° West 217 250 7,900  Level FAA TRACON SMA TRACON (SMA)
05:18PM 44.9053 -93.6231 282° West 218 251 7,900 -900 Level FAA TRACON SMA TRACON (SMA)
05:19PM 44.9175 -93.6439 310° West 224 258 7,300 -1,800 Descending FAA TRACON SMA TRACON (SMA)
05:19PM 44.9311 -93.6631 315° West 227 261 6,700 -2,040 Descending FAA TRACON SMA TRACON (SMA)
05:19PM 44.9489 -93.6875 316° Northwest 230 265 6,000 -1,920 Descending FAA TRACON SMA TRACON (SMA)
05:20PM 44.9633 -93.7067 317° Northwest 230 265 5,400 -1,500 Descending FAA TRACON SMA TRACON (SMA)
05:20PM 44.9822 -93.7122 348° North 241 277 5,000 -780 Descending FAA TRACON SMA TRACON (SMA)
05:20PM 45.0056 -93.6989 22° Northeast 239 275 4,900 -180 Descending FAA TRACON SMA TRACON (SMA)
05:21PM 45.0225 -93.6878 25° Northeast 226 260 4,900  Level FAA TRACON SMA TRACON (SMA)
05:21PM 45.0364 -93.6739 35° Northeast 214 246 4,900  Level FAA TRACON SMA TRACON (SMA)
05:21PM 45.0397 -93.6467 80° East 196 226 4,900  Level FAA TRACON SMA TRACON (SMA)
05:22PM 45.0389 -93.6261 93° East 178 205 4,900  Level FAA TRACON SMA TRACON (SMA)
05:22PM 45.0386 -93.6042 91° East 178 205 4,900  Level FAA TRACON SMA TRACON (SMA)
05:22PM 45.0367 -93.5778 96° East 178 205 4,900  Level FAA TRACON SMA TRACON (SMA)
05:23PM 45.0308 -93.5594 114° Southeast 171 197 4,900  Level FAA TRACON SMA TRACON (SMA)
05:23PM 45.0222 -93.5439 128° Southeast 166 191 4,900  Level FAA TRACON SMA TRACON (SMA)
05:23PM 45.0125 -93.5233 124° Southeast 163 188 4,900  Level FAA TRACON SMA TRACON (SMA)
05:24PM 45.0044 -93.5056 123° Southeast 170 196 4,900  Level FAA TRACON SMA TRACON (SMA)
05:24PM 44.9964 -93.4872 122° Southeast 177 204 4,900 -300 Level FAA TRACON SMA TRACON (SMA)
05:24PM 44.9861 -93.4636 122° Southeast 182 209 4,700 -780 Descending FAA TRACON SMA TRACON (SMA)
05:25PM 44.9783 -93.4436 119° Southeast 187 215 4,400 -1,080 Descending FAA TRACON SMA TRACON (SMA)
05:25PM 44.9700 -93.4244 122° Southeast 187 215 4,000 -1,200 Descending FAA TRACON SMA TRACON (SMA)
05:25PM 44.9597 -93.4006 121° Southeast 185 213 3,600 -1,080 Descending FAA TRACON SMA TRACON (SMA)
05:26PM 44.9519 -93.3825 121° Southeast 182 209 3,300 -900 Descending FAA TRACON SMA TRACON (SMA)
05:26PM 44.9442 -93.3650 122° Southeast 173 199 3,000 -900 Descending FAA TRACON SMA TRACON (SMA)
05:26PM 44.9353 -93.3442 121° Southeast 162 186 2,700 -900 Descending FAA TRACON SMA TRACON (SMA)
05:27PM 44.9289 -93.3294 122° Southeast 149 171 2,400 -780 Descending FAA TRACON SMA TRACON (SMA)
05:27PM 44.9233 -93.3167 122° Southeast 130 150 2,200 -600 Descending FAA TRACON SMA TRACON (SMA)
05:27PM 44.9167 -93.3017 122° Southeast 118 136 2,000 -600 Descending FAA TRACON SMA TRACON (SMA)
05:28PM 44.9114 -93.2889 120° Southeast 119 137 1,800 -600 Descending FAA TRACON SMA TRACON (SMA)
05:28PM 44.9061 -93.2764 121° Southeast 119 137 1,600 -780 Descending FAA TRACON SMA TRACON (SMA)
05:28PM 44.8992 -93.2606 122° Southeast 123 142 1,300 -780 Descending FAA TRACON SMA TRACON (SMA)
05:29PM 44.8936 -93.2472 120° Southeast 126 145 1,100 -600 Descending FAA TRACON SMA TRACON (SMA)
05:31PM 44.8820 -93.2218 106° East  Level Estimated